Relevés horaires Chievres (Belgique)


Relevés horaires à Chievres - Samedi 19 Mars 2022
Heure UTC1 Température [°C] Vent [km/h] Hum. [%] Pres.4 [hPa] Visi. [Km] Nébu. [octa] Préc.5 [mm] Cond.
2m. Res. Ros. Dir.2 Vit. Moy. Raf.3
23:00 4.9 3.2 -2.3 ENE 7.4 -- 13.0 60 1032.2(-0.4/3h) 20 -- -- --
22:00 6.8 5 -3.2 E 9.3 -- 20.4 49 1032.5(-0.1/3h) 20 -- -- --
21:00 8.1 5.6 -4.0 ENE 14.8 -- 24.1 42 1032.5(-0.1/3h) 20 -- -- --
20:00 8.7 6.3 -4.0 ENE 14.8 -- 24.1 40 1032.5(-0.2/3h) 20 -- -- --
19:00 8.8 6.7 -4.9 ENE 13.0 -- 22.2 37 1032.7(-0.5/3h) 20 -- -- --
18:00 10.0 8.2 -4.6 ENE 13.0 -- 25.9 35 1032.7(-1.3/3h) 20 -- -- --
17:00 12.1 10.7 -3.9 ENE 13.0 -- 22.2 32 1032.7(-2.2/3h) 20 -- -- --
16:00 13.5 12.7 1.0 ENE 11.1 -- 22.2 42 1033(-2.9/3h) 20 -- -- --
15:00 13.6 12.4 0.9 ENE 14.8 -- 25.9 42 1033.9(-3.1/3h) 20 -- -- --
14:00 13.3 11.7 -0.9 ENE 18.5 -- 25.9 37 1035(-3.1/3h) 20 -- -- --
13:00 13.6 12.2 -1.1 E 16.7 -- 25.9 36 1036(-2.7/3h) 19 -- -- --
12:00 13.1 11.8 0.1 ENE 14.8 -- 24.1 41 1037(-2.0/3h) 20 -- -- --
11:00 11.6 9.9 1.0 E 14.8 -- 22.2 48 1038.2(-1.2/3h) 20 -- -- --
10:00 10.3 8.3 0.4 ENE 14.8 -- 20.4 50 1038.7(-0.7/3h) 20 -- -- --
09:00 8.9 6.8 1.1 ENE 13.0 -- 18.5 58 1039.4(-0.3/3h) 20 -- -- --
08:00 7.4 5 1.4 ENE 13.0 -- 18.5 66 1039.5(-0.1/3h) 20 -- -- --
07:00 5.9 3.5 1.0 ENE 11.1 -- 16.7 71 1039.7(-0.1/3h) 20 -- -- --
06:00 5.3 2.8 0.7 ENE 11.1 -- 18.5 72 1039.9(-0.2/3h) 20 -- -- --
05:00 5.7 3.6 0.2 ENE 9.3 -- 14.8 68 1039.7(-0.7/3h) 20 -- -- --
04:00 6.1 3.8 0.5 ENE 11.1 -- 16.7 67 1040(-1.0/3h) 20 -- -- --
03:00 6.8 4.6 1.1 ENE 11.1 -- 18.5 67 1040(-1.0/3h) 20 -- -- --
02:00 7.2 4.8 1.8 ENE 13.0 -- 18.5 68 1040.5(-0.9/3h) 20 -- -- --
01:00 7.5 5.4 2.1 ENE 11.1 -- 18.5 69 1041(-0.6/3h) 20 -- -- --
00:00 7.6 5.6 2.6 ENE 11.1 -- 16.7 71 1041(-0.4/3h) 20 -- -- --

1 Coordinated Universal Time. Actuellement il est 19:00 locale et 18:00 UTC.

2 Le vent souffle depuis la direction indiquée vers la direction oposée.

3 Les rafales max. sont disponible 40 min après l'heure du relevé.

4 Pour les stations d'altitude (plus de 600m) le géopotentiel du niveau le plus proche de la pression obligatoire est indiqué.

5 Les stations disposant d'un diffuseur peuvent indiquer "trace". Cela signifie que des précipitations ont touchés le sol mais que la quantité est inférieure à 0.1 mm.

Récapitulatif de la journée
Température [°C] Vent [km/h] Ensoleillement4 [h] Precipitations totale5 [mm] Pression [Hpa]
Min1 Max.2 Moy.3 Max. Min Max.
4.9 14.0 0 25.9 0 h 0 min 0 1032.2 1041.0

1 Température minimale relevée entre 18:00 UTC la veille et 18:00 UTC le jour donné.

2 Température maximale relevée entre 06:00 UTC le jour donné et 06:00 UTC le lendemain.

3 Vent moyen de la journée basé sur les relevés horaires.

4 Ensoleillement en heures relevé entre 06:00 UTC la veille et 06:00 UTC le jour donné.

5 Précipitations totales tombées entre 06:00 UTC la jour donné et 06:00 UTC le lendemain.

Graphiques horaires